Time;durP1;ratioP1;P1;durP2;ratioP2;P2;SDS_P1;SDS_P2;PMS_P1;PMS_P2;Temp;Humidity;BMP_temperature;BMP_pressure;BME280_temperature;BME280_humidity;BME280_pressure;Samples;Min_cycle;Max_cycle;Signal;HPM_P1;HPM_P2
2021/12/12 00:00:57;;;;;;;45.73;13.43;;;;;;;-4.06;100.00;101388.77;5066548;57;1143262;-80
2021/12/12 00:06:08;;;;;;;63.20;20.30;;;;;;;-4.04;100.00;101383.17;5095595;57;1143462;-82
2021/12/12 00:11:18;;;;;;;46.77;15.40;;;;;;;-4.03;100.00;101381.45;5081376;57;1143272;-80
2021/12/12 00:16:24;;;;;;;38.57;12.20;;;;;;;-4.14;100.00;101387.95;5141495;57;1143192;-80
2021/12/12 00:21:32;;;;;;;39.07;13.03;;;;;;;-4.23;100.00;101398.73;5141311;57;1141016;-80
2021/12/12 00:26:38;;;;;;;69.47;22.70;;;;;;;-4.28;100.00;101402.17;5102343;57;1141215;-82
2021/12/12 00:31:45;;;;;;;39.23;10.63;;;;;;;-4.26;100.00;101395.29;5141488;57;1141385;-80
2021/12/12 00:36:51;;;;;;;38.07;12.13;;;;;;;-4.16;100.00;101401.73;5045247;58;1141406;-80
2021/12/12 00:42:07;;;;;;;38.90;11.33;;;;;;;-4.15;100.00;101403.45;5024623;58;1141128;-82
2021/12/12 00:47:14;;;;;;;46.40;13.83;;;;;;;-4.21;100.00;101404.33;5003991;58;1141473;-81
2021/12/12 00:52:21;;;;;;;62.57;20.23;;;;;;;-4.16;100.00;101409.05;4960869;59;1141371;-80
2021/12/12 00:57:28;;;;;;;88.20;25.90;;;;;;;-4.10;100.00;101427.09;5058124;58;1141071;-83
2021/12/12 01:02:33;;;;;;;40.50;10.87;;;;;;;-4.04;100.00;101412.88;5031246;58;1141200;-82
2021/12/12 01:07:43;;;;;;;68.60;22.27;;;;;;;-4.00;100.00;101405.98;4969092;58;1141104;-82
2021/12/12 01:12:50;;;;;;;34.98;8.83;;;;;;;-3.99;100.00;101424.50;4958566;59;1141105;-81
2021/12/12 01:18:01;;;;;;;51.18;18.05;;;;;;;-4.00;100.00;101424.07;4958208;59;1139182;-80
2021/12/12 01:23:16;;;;;;;41.07;13.53;;;;;;;-4.04;100.00;101430.11;4962071;59;1141075;-82
2021/12/12 01:28:27;;;;;;;68.23;19.83;;;;;;;-4.06;100.00;101422.78;4882435;59;1143190;-82
2021/12/12 01:33:36;;;;;;;44.53;14.50;;;;;;;-4.03;100.00;101417.61;5081263;57;1143095;-82
2021/12/12 01:38:52;;;;;;;63.57;18.87;;;;;;;-3.95;100.00;101393.88;5014440;58;1143141;-81
2021/12/12 01:44:06;;;;;;;37.33;13.13;;;;;;;-3.88;100.00;101390.86;5019100;58;1143103;-82
2021/12/12 01:49:16;;;;;;;46.47;13.20;;;;;;;-3.82;100.00;101381.80;5035935;58;1143190;-81
2021/12/12 01:54:27;;;;;;;57.97;16.87;;;;;;;-3.77;100.00;101382.61;4862874;58;1143197;-81
2021/12/12 01:59:37;;;;;;;75.87;24.47;;;;;;;-3.75;100.00;101396.38;4906335;58;1143219;-80
2021/12/12 02:04:49;;;;;;;92.53;30.33;;;;;;;-3.72;100.00;101389.91;4928604;58;1143409;-80
2021/12/12 02:09:59;;;;;;;73.05;18.25;;;;;;;-3.68;100.00;101398.95;5122611;57;1143313;-80
2021/12/12 02:15:11;;;;;;;59.93;17.37;;;;;;;-3.62;100.00;101405.36;5125471;57;1143161;-80
2021/12/12 02:20:34;;;;;;;80.43;24.20;;;;;;;-3.59;100.00;101420.00;5127915;57;1143209;-81
2021/12/12 02:36:25;;;;;;;50.57;16.13;;;;;;;-3.53;100.00;101419.98;5127841;57;1143236;-82
2021/12/12 02:41:32;;;;;;;53.23;15.57;;;;;;;-3.48;100.00;101417.34;5127844;57;1143428;-80
2021/12/12 02:46:40;;;;;;;60.93;20.47;;;;;;;-3.43;100.00;101414.31;5127601;57;1143236;-82
2021/12/12 02:51:45;;;;;;;111.97;36.73;;;;;;;-3.41;100.00;101425.50;5127846;57;1143257;-80
2021/12/12 02:56:51;;;;;;;62.17;19.10;;;;;;;-3.35;100.00;101431.91;5127864;57;1145282;-81
2021/12/12 03:02:07;;;;;;;60.27;16.47;;;;;;;-3.29;100.00;101435.34;5120701;57;1143131;-82
2021/12/12 03:07:14;;;;;;;72.97;23.17;;;;;;;-3.23;100.00;101431.43;5109132;58;1141100;-79
2021/12/12 03:12:33;;;;;;;93.97;29.80;;;;;;;-3.17;100.00;101430.51;5109284;58;1141160;-81
2021/12/12 03:17:36;;;;;;;59.23;18.73;;;;;;;-3.16;100.00;101431.37;5108876;56;1141255;-81
2021/12/12 03:22:43;;;;;;;72.83;22.07;;;;;;;-3.10;100.00;101435.22;5109654;58;1141033;-82
2021/12/12 03:27:49;;;;;;;72.60;24.40;;;;;;;-3.09;100.00;101431.77;5109649;58;1141123;-80
2021/12/12 03:32:55;;;;;;;73.87;25.57;;;;;;;-3.08;100.00;101431.76;5174442;57;1141085;-82
2021/12/12 03:38:01;;;;;;;76.07;23.70;;;;;;;-3.05;100.00;101447.23;5187639;57;1141380;-80
2021/12/12 03:43:09;;;;;;;72.93;24.23;;;;;;;-3.06;100.00;101449.86;5186557;56;1141129;-79
2021/12/12 03:48:31;;;;;;;86.40;28.67;;;;;;;-3.06;100.00;101442.09;5100349;56;1141351;-79
2021/12/12 03:53:39;;;;;;;78.20;28.73;;;;;;;-3.00;100.00;101440.74;5115543;56;1141190;-81
2021/12/12 03:58:47;;;;;;;92.70;30.43;;;;;;;-2.96;100.00;101455.39;5236578;56;1138922;-81
2021/12/12 04:03:58;;;;;;;86.47;30.77;;;;;;;-2.93;100.00;101461.84;5236460;56;1143599;-81
2021/12/12 04:09:08;;;;;;;96.33;33.60;;;;;;;-2.92;100.00;101448.03;5273804;56;1143325;-79
2021/12/12 04:14:16;;;;;;;93.87;29.93;;;;;;;-2.86;100.00;101444.94;5126178;57;1143434;-80
2021/12/12 04:19:23;;;;;;;81.53;29.67;;;;;;;-2.80;100.00;101447.92;5081057;57;1143145;-79
2021/12/12 04:24:34;;;;;;;92.40;33.13;;;;;;;-2.78;100.00;101446.63;5119057;57;1143184;-80
2021/12/12 04:29:45;;;;;;;79.67;29.93;;;;;;;-2.77;100.00;101449.64;5162214;56;1143194;-79
2021/12/12 04:34:55;;;;;;;93.37;33.17;;;;;;;-2.75;100.00;101442.25;5142675;56;1143174;-79
2021/12/12 04:40:01;;;;;;;73.17;28.57;;;;;;;-2.72;100.00;101430.59;5142643;56;1143157;-81
2021/12/12 04:45:32;;;;;;;67.73;25.57;;;;;;;-2.65;100.00;101447.80;5142677;56;1143184;-79
2021/12/12 04:51:01;;;;;;;75.77;27.00;;;;;;;-2.68;100.00;101458.61;5142787;56;1143165;-81
2021/12/12 04:56:44;;;;;;;70.63;27.57;;;;;;;-2.72;100.00;101459.06;5145184;56;1143196;-81
2021/12/12 05:02:21;;;;;;;70.97;29.00;;;;;;;-2.75;100.00;101470.73;5159466;56;1143295;-80
2021/12/12 05:07:55;;;;;;;75.63;30.20;;;;;;;-2.74;100.00;101474.18;5135939;57;1141151;-80
2021/12/12 05:13:25;;;;;;;;;;;;;;;-2.63;100.00;101469.80;5145049;57;1141348;-81
2021/12/12 05:18:35;;;;;;;78.10;29.53;;;;;;;-2.57;100.00;101472.31;5151054;56;974373;-82
2021/12/12 05:23:47;;;;;;;75.47;28.93;;;;;;;-2.57;100.00;101477.50;5150505;57;1139009;-79
2021/12/12 05:29:06;;;;;;;59.30;21.55;;;;;;;-2.58;100.00;101483.55;5054956;58;1141092;-81
2021/12/12 05:34:15;;;;;;;79.23;28.10;;;;;;;-2.61;100.00;101504.31;5159333;57;1143209;-81
2021/12/12 05:39:22;;;;;;;73.83;28.40;;;;;;;-2.64;100.00;101496.12;5150462;57;1143268;-80
2021/12/12 05:44:31;;;;;;;74.40;30.47;;;;;;;-2.58;100.00;101497.79;5150462;57;1143298;-80
2021/12/12 05:49:40;;;;;;;84.53;33.43;;;;;;;-2.54;100.00;101499.48;5150128;57;1143138;-81
2021/12/12 05:54:48;;;;;;;99.33;39.10;;;;;;;-2.53;100.00;101502.50;5146100;57;1143148;-80
2021/12/12 05:59:57;;;;;;;88.00;32.33;;;;;;;-2.51;100.00;101513.28;5150158;57;1143164;-82
2021/12/12 06:05:04;;;;;;;77.97;32.08;;;;;;;-2.47;100.00;101504.20;5149966;57;1143136;-79
2021/12/12 06:10:14;;;;;;;75.00;30.87;;;;;;;-2.47;100.00;101498.58;5150000;57;1143232;-81
2021/12/12 06:15:23;;;;;;;81.10;32.80;;;;;;;-2.41;100.00;101493.77;5054660;58;1143149;-79
2021/12/12 06:20:31;;;;;;;77.53;28.50;;;;;;;-2.39;100.00;101489.43;5150223;57;1143140;-81
2021/12/12 06:25:40;;;;;;;79.80;30.13;;;;;;;-2.37;100.00;101496.32;5115958;57;1143129;-81
2021/12/12 06:30:46;;;;;;;85.83;37.67;;;;;;;-2.41;100.00;101502.83;5149989;57;1143252;-79
2021/12/12 06:35:53;;;;;;;72.30;30.47;;;;;;;-2.41;100.00;101508.88;5150038;57;1143287;-81
2021/12/12 06:41:00;;;;;;;68.57;27.90;;;;;;;-2.40;100.00;101513.62;5149864;57;1143233;-80
2021/12/12 06:46:07;;;;;;;71.13;25.60;;;;;;;-2.47;100.00;101529.66;5150313;57;1143235;-80
2021/12/12 06:51:13;;;;;;;79.03;32.63;;;;;;;-2.52;100.00;101536.59;5150910;57;1143149;-79
2021/12/12 06:56:21;;;;;;;109.17;41.90;;;;;;;-2.46;100.00;101537.86;5150835;57;1143217;-81
2021/12/12 07:01:32;;;;;;;118.33;48.20;;;;;;;-2.43;100.00;101536.52;5142219;57;1145256;-80
2021/12/12 07:06:38;;;;;;;93.47;35.70;;;;;;;-2.38;100.00;101543.82;5089501;57;1145251;-79
2021/12/12 07:11:46;;;;;;;74.13;29.17;;;;;;;-2.39;100.00;101548.58;5124509;57;1143242;-81
2021/12/12 07:16:52;;;;;;;75.53;32.20;;;;;;;-2.44;100.00;101549.04;5155332;56;1143168;-82
2021/12/12 07:22:00;;;;;;;96.40;37.37;;;;;;;-2.46;100.00;101546.92;5207530;56;1143328;-80
2021/12/12 07:27:07;;;;;;;119.30;45.03;;;;;;;-2.45;100.00;101551.67;5197241;56;1143216;-82
2021/12/12 07:32:15;;;;;;;109.13;40.03;;;;;;;-2.42;100.00;101549.89;5176021;56;1145231;-80
2021/12/12 07:37:22;;;;;;;112.50;38.20;;;;;;;-2.36;100.00;101558.92;5213744;56;1145379;-80
2021/12/12 07:42:27;;;;;;;93.40;32.75;;;;;;;-2.29;100.00;101567.05;5197484;56;1145235;-80
2021/12/12 07:47:34;;;;;;;93.50;34.50;;;;;;;-2.33;100.00;101571.86;5211467;56;1143132;-80
2021/12/12 07:52:40;;;;;;;101.70;39.67;;;;;;;-2.39;100.00;101572.33;5148274;56;1143339;-80
2021/12/12 07:57:46;;;;;;;101.00;43.90;;;;;;;-2.40;100.00;101581.83;5080913;57;1145252;-81
2021/12/12 08:02:55;;;;;;;99.10;40.17;;;;;;;-2.38;100.00;101577.50;5086869;57;1145290;-78
2021/12/12 08:08:06;;;;;;;123.20;48.03;;;;;;;-2.27;100.00;101598.12;5123403;57;1143293;-78
2021/12/12 08:13:15;;;;;;;115.37;44.73;;;;;;;-2.26;100.00;101603.30;5118822;57;1143224;-78
2021/12/12 08:18:22;;;;;;;103.70;40.57;;;;;;;-2.24;100.00;101602.86;5118503;57;1143182;-80
2021/12/12 08:23:28;;;;;;;120.30;43.80;;;;;;;-2.21;100.00;101599.39;5112677;57;1143260;-78
2021/12/12 08:28:35;;;;;;;131.47;55.37;;;;;;;-2.20;100.00;101611.05;5100018;58;1143274;-79
2021/12/12 08:33:41;;;;;;;84.43;32.43;;;;;;;-2.17;100.00;101614.91;5099959;58;1143479;-78
2021/12/12 08:43:56;;;;;;;119.43;52.80;;;;;;;-2.11;100.00;101612.69;5258636;55;47272;-81
2021/12/12 08:49:04;;;;;;;152.37;52.23;;;;;;;-2.12;100.00;101609.23;5135324;57;1138993;-81
2021/12/12 08:54:22;;;;;;;98.47;37.87;;;;;;;-2.04;100.00;101607.03;5134944;57;1143361;-82
2021/12/12 08:59:26;;;;;;;84.80;30.67;;;;;;;-2.03;100.00;101610.91;5136309;57;1141106;-81
2021/12/12 09:04:36;;;;;;;98.00;36.10;;;;;;;-1.96;100.00;101601.33;5135483;57;1141756;-79
2021/12/12 09:09:49;;;;;;;88.47;30.70;;;;;;;-1.93;100.00;101607.79;5135450;57;1141085;-79
2021/12/12 09:15:16;;;;;;;151.55;59.85;;;;;;;-1.90;100.00;101602.58;5191073;56;1139626;-80
2021/12/12 09:20:35;;;;;;;100.93;33.80;;;;;;;-1.90;100.00;101603.44;5221174;55;1145263;-80
2021/12/12 09:25:51;;;;;;;170.50;58.40;;;;;;;-1.89;100.00;101599.12;5221493;56;1145298;-78
2021/12/12 09:31:01;;;;;;;105.10;31.63;;;;;;;-1.88;100.00;101603.00;5221565;55;1145239;-81
2021/12/12 09:36:14;;;;;;;93.13;31.60;;;;;;;-1.84;100.00;101593.03;5221650;55;1145318;-78
2021/12/12 09:41:49;;;;;;;180.48;54.55;;;;;;;-1.81;100.00;101589.52;5221934;55;1143203;-78
2021/12/12 09:47:45;;;;;;;100.93;30.93;;;;;;;-1.78;100.00;101587.77;5201534;56;1145463;-79
2021/12/12 09:53:20;;;;;;;113.73;33.60;;;;;;;-1.78;100.00;101581.72;5228906;55;1145272;-79
2021/12/12 09:58:52;;;;;;;69.60;21.87;;;;;;;-1.72;100.00;101582.11;5229036;55;1143167;-78
2021/12/12 10:04:17;;;;;;;204.37;68.57;;;;;;;-1.62;100.00;101578.53;5173706;56;1141027;-80
2021/12/12 10:09:28;;;;;;;100.43;32.43;;;;;;;-1.56;100.00;101579.77;5185944;56;1143302;-78
2021/12/12 10:14:49;;;;;;;135.97;41.33;;;;;;;-1.49;100.00;101585.30;5161595;56;1143229;-81
2021/12/12 10:20:06;;;;;;;104.70;37.70;;;;;;;-1.45;100.00;101574.02;5171686;56;1143220;-79
2021/12/12 10:25:34;;;;;;;133.47;42.15;;;;;;;-1.35;100.00;101577.35;5151685;56;1145210;-79
2021/12/12 10:30:50;;;;;;;111.60;39.60;;;;;;;-1.29;100.00;101578.59;5091874;56;1145293;-80
2021/12/12 10:36:12;;;;;;;116.93;40.00;;;;;;;-1.26;100.00;101584.61;5130819;57;1145514;-79
2021/12/12 10:41:25;;;;;;;182.67;56.97;;;;;;;-1.23;100.00;101585.87;5058396;56;1145295;-79
2021/12/12 10:46:38;;;;;;;69.27;21.27;;;;;;;-1.22;100.00;101585.44;5049918;58;1145272;-78
2021/12/12 10:52:00;;;;;;;100.87;34.97;;;;;;;-1.18;100.00;101578.02;5048267;58;1143169;-79
2021/12/12 10:57:13;;;;;;;156.97;56.17;;;;;;;-1.15;100.00;101580.14;5027710;58;1145566;-79
2021/12/12 11:02:25;;;;;;;95.03;29.67;;;;;;;-1.16;100.00;101575.83;5005253;58;1145230;-79
2021/12/12 11:07:39;;;;;;;71.47;25.37;;;;;;;-1.19;100.00;101571.96;5091829;56;1143461;-78
2021/12/12 11:13:03;;;;;;;109.40;37.00;;;;;;;-1.14;100.00;101566.72;5193287;56;1143403;-79
2021/12/12 11:18:33;;;;;;;112.53;37.90;;;;;;;-1.15;100.00;101563.27;5178642;56;1145287;-79
2021/12/12 11:23:52;;;;;;;133.53;50.00;;;;;;;-1.08;100.00;101559.73;5138432;57;1145222;-81
2021/12/12 11:29:02;;;;;;;120.17;42.53;;;;;;;-0.98;100.00;101561.75;5138015;57;1143189;-81
2021/12/12 11:34:10;;;;;;;125.73;42.93;;;;;;;-0.96;100.00;101559.13;5009887;57;1143442;-80
2021/12/12 11:39:24;;;;;;;104.40;37.40;;;;;;;-0.91;100.00;101557.31;5138225;57;1143280;-82
2021/12/12 11:44:43;;;;;;;103.53;39.00;;;;;;;-0.89;100.00;101554.26;5137608;57;1143167;-82
2021/12/12 11:50:14;;;;;;;100.87;36.50;;;;;;;-0.89;100.00;101552.96;5189545;56;1143451;-81
2021/12/12 11:55:40;;;;;;;94.00;33.60;;;;;;;-0.86;100.00;101552.48;5176000;55;1141069;-81
2021/12/12 12:01:06;;;;;;;93.20;32.93;;;;;;;-0.80;100.00;101552.84;5183305;55;1143307;-80
2021/12/12 12:06:48;;;;;;;103.27;36.00;;;;;;;-0.76;100.00;101546.27;5172767;55;1143299;-80
2021/12/12 12:12:10;;;;;;;74.03;24.43;;;;;;;-0.67;100.00;101550.92;5184834;55;1145249;-78
2021/12/12 12:17:51;;;;;;;90.40;31.37;;;;;;;-0.63;100.00;101548.27;5196020;55;1143184;-81
2021/12/12 12:23:17;;;;;;;95.30;33.17;;;;;;;-0.61;100.00;101552.14;5164557;55;1143086;-81
2021/12/12 12:28:25;;;;;;;116.93;43.07;;;;;;;-0.60;100.00;101559.03;5177498;55;1143164;-78
2021/12/12 12:34:21;;;;;;;92.67;32.07;;;;;;;-0.61;100.00;101550.38;5196766;56;1145312;-78
2021/12/12 12:40:02;;;;;;;79.03;26.07;;;;;;;-0.60;100.00;101548.63;5178123;56;1141007;-81
2021/12/12 12:45:35;;;;;;;132.87;45.23;;;;;;;-0.63;100.00;101551.30;5133904;56;1141215;-81
2021/12/12 12:51:19;;;;;;;129.40;46.80;;;;;;;-0.64;100.00;101550.45;5089559;57;1151081;-82
2021/12/12 12:57:11;;;;;;;101.00;31.23;;;;;;;-0.63;100.00;101548.70;5138378;56;1145259;-81
2021/12/12 13:02:21;;;;;;;200.73;91.20;;;;;;;-0.66;100.00;101543.55;5144118;57;1145367;-81
2021/12/12 13:08:00;;;;;;;118.33;48.33;;;;;;;-0.63;100.00;101548.27;5110260;58;1145431;-81
2021/12/12 13:13:16;;;;;;;355.70;189.97;;;;;;;-0.60;100.00;101545.59;5110130;57;1145722;-81
2021/12/12 13:18:29;;;;;;;238.57;118.93;;;;;;;-0.57;100.00;101548.16;5110213;58;1146945;-81
2021/12/12 13:24:18;;;;;;;274.58;77.27;;;;;;;-0.56;100.00;101543.38;5106110;58;1147323;-81
2021/12/12 13:29:50;;;;;;;106.97;38.30;;;;;;;-0.54;100.00;101551.15;5110665;58;1143447;-81
2021/12/12 13:35:09;;;;;;;129.15;43.58;;;;;;;-0.53;100.00;101548.53;5101601;58;1143144;-81
2021/12/12 13:40:44;;;;;;;117.10;42.50;;;;;;;-0.48;100.00;101551.07;5110729;58;1143321;-81
2021/12/12 13:45:57;;;;;;;;;;;;;;;-0.43;100.00;101548.80;5120452;57;1141591;-80
2021/12/12 13:51:17;;;;;;;103.60;34.70;;;;;;;-0.36;100.00;101553.02;4977582;58;976371;-81
2021/12/12 13:56:50;;;;;;;150.00;60.90;;;;;;;-0.27;100.00;101547.24;5120489;57;1143063;-81
2021/12/12 14:02:06;;;;;;;101.23;34.70;;;;;;;-0.25;100.00;101544.19;5166531;56;1145283;-82
2021/12/12 14:07:13;;;;;;;130.40;44.37;;;;;;;-0.26;100.00;101540.72;5294254;56;1145283;-80
2021/12/12 14:12:22;;;;;;;82.62;31.57;;;;;;;-0.26;100.00;101538.56;5293962;56;1145542;-81
2021/12/12 14:17:47;;;;;;;118.60;40.67;;;;;;;-0.25;100.00;101545.05;5294197;56;1143508;-81
2021/12/12 14:22:56;;;;;;;88.43;33.40;;;;;;;-0.24;100.00;101529.00;5294048;55;1145212;-81
2021/12/12 14:28:05;;;;;;;114.00;42.77;;;;;;;-0.23;100.00;101533.32;5294193;56;1143032;-81
2021/12/12 14:33:18;;;;;;;139.53;52.90;;;;;;;-0.22;100.00;101537.64;5294209;56;1145508;-81
2021/12/12 14:38:24;;;;;;;160.13;54.73;;;;;;;-0.18;100.00;101545.81;5294446;55;1145288;-81
2021/12/12 14:43:36;;;;;;;158.53;58.03;;;;;;;-0.17;100.00;101535.83;5294170;55;1145957;-81
2021/12/12 14:48:57;;;;;;;151.50;60.47;;;;;;;-0.15;100.00;101545.73;5331172;55;1145403;-81
2021/12/12 14:54:09;;;;;;;146.33;46.57;;;;;;;-0.14;100.00;101550.05;5326562;55;1145335;-81
2021/12/12 14:59:27;;;;;;;159.00;50.97;;;;;;;-0.12;100.00;101550.45;5331103;55;1145685;-80
2021/12/12 15:04:39;;;;;;;139.13;48.70;;;;;;;-0.12;100.00;101554.34;5238118;55;1143224;-81
2021/12/12 15:09:55;;;;;;;108.63;36.00;;;;;;;-0.10;100.00;101559.52;5232123;56;1143113;-81
2021/12/12 15:15:05;;;;;;;121.53;41.43;;;;;;;-0.12;100.00;101564.74;5229171;55;1143315;-81
2021/12/12 15:20:15;;;;;;;131.13;44.17;;;;;;;-0.15;100.00;101547.03;5188623;56;1143494;-81
2021/12/12 15:25:26;;;;;;;120.13;42.17;;;;;;;-0.15;100.00;101535.33;5194673;56;1143276;-81
2021/12/12 15:30:34;;;;;;;138.67;51.47;;;;;;;-0.13;100.00;101540.92;5176407;56;1143128;-81
2021/12/12 15:35:41;;;;;;;138.20;47.13;;;;;;;-0.12;100.00;101527.48;5192166;56;1143387;-81
2021/12/12 15:40:51;;;;;;;93.73;30.97;;;;;;;-0.12;100.00;101537.44;5181424;56;1143284;-81
2021/12/12 15:46:05;;;;;;;99.90;34.87;;;;;;;-0.12;100.00;101553.48;5196262;55;1141081;-81
2021/12/12 15:51:11;;;;;;;;;;;;;;;-0.17;100.00;101550.98;5216317;56;1139330;-81
2021/12/12 15:56:30;;;;;;;110.13;40.13;;;;;;;-0.20;100.00;101538.48;5226401;56;20385;-80
2021/12/12 16:01:49;;;;;;;116.28;45.12;;;;;;;-0.20;100.00;101551.03;5206472;56;1141032;-80
2021/12/12 16:07:05;;;;;;;109.77;45.97;;;;;;;-0.23;100.00;101542.42;5177997;56;1145427;-80
2021/12/12 16:12:18;;;;;;;124.17;61.20;;;;;;;-0.26;100.00;101542.02;5208000;56;1145526;-80
2021/12/12 16:17:33;;;;;;;96.20;37.15;;;;;;;-0.28;100.00;101524.30;5230688;56;1145283;-80
2021/12/12 16:22:43;;;;;;;168.73;63.93;;;;;;;-0.26;100.00;101529.02;5230747;56;1143228;-80
2021/12/12 16:27:55;;;;;;;352.33;140.50;;;;;;;-0.28;100.00;101538.59;5231758;56;1145231;-81
2021/12/12 16:33:13;;;;;;;167.67;72.57;;;;;;;-0.25;100.00;101546.78;5228912;56;1147314;-80
2021/12/12 16:38:27;;;;;;;113.93;41.63;;;;;;;-0.18;100.00;101547.11;5222461;56;1145198;-80
2021/12/12 16:43:36;;;;;;;104.00;42.70;;;;;;;-0.18;100.00;101536.70;5222759;56;1145496;-80
2021/12/12 16:49:01;;;;;;;95.93;39.13;;;;;;;-0.21;100.00;101529.81;5222635;56;1145418;-80
2021/12/12 16:54:17;;;;;;;91.27;35.10;;;;;;;-0.23;100.00;101519.88;5222011;56;1143176;-80
2021/12/12 16:59:31;;;;;;;136.93;58.40;;;;;;;-0.29;100.00;101525.17;5220524;56;1143398;-80
2021/12/12 17:04:45;;;;;;;155.03;61.92;;;;;;;-0.28;100.00;101534.69;5202737;56;1145246;-81
2021/12/12 17:09:56;;;;;;;137.30;53.70;;;;;;;-0.24;100.00;101543.30;5198940;56;1145236;-80
2021/12/12 17:15:21;;;;;;;201.90;80.27;;;;;;;-0.19;100.00;101537.59;5244476;56;1143186;-78
2021/12/12 17:20:39;;;;;;;150.93;64.00;;;;;;;-0.18;100.00;101533.67;5258107;56;1143389;-80
2021/12/12 17:25:49;;;;;;;280.17;87.03;;;;;;;-0.15;100.00;101531.44;5297556;56;1143030;-80
2021/12/12 17:31:08;;;;;;;340.07;104.30;;;;;;;-0.18;100.00;101537.57;5272708;56;1143138;-79
2021/12/12 17:36:17;;;;;;;138.83;54.87;;;;;;;-0.19;100.00;101529.35;5239358;56;1145239;-79
2021/12/12 17:41:27;;;;;;;126.57;48.13;;;;;;;-0.16;100.00;101547.50;5256961;55;1142423;-79
2021/12/12 17:47:12;;;;;;;251.03;76.60;;;;;;;-0.15;100.00;101538.79;5252106;55;1141067;-78
2021/12/12 17:52:40;;;;;;;;;;;;;;;-0.17;100.00;101528.03;5237148;55;1145228;-78
2021/12/12 17:58:23;;;;;;;141.00;59.00;;;;;;;-0.15;100.00;101531.44;5253787;55;976276;-79
2021/12/12 18:03:34;;;;;;;141.87;58.13;;;;;;;-0.14;100.00;101519.70;5251796;55;1143109;-79
2021/12/12 18:09:03;;;;;;;125.20;55.87;;;;;;;-0.12;100.00;101528.34;5257144;55;1145216;-81
2021/12/12 18:14:12;;;;;;;;;;;;;;;-0.11;100.00;101518.80;5254224;55;1145019;-81
2021/12/12 18:20:11;;;;;;;161.30;68.27;;;;;;;-0.12;100.00;101533.98;5258030;55;976233;-77
2021/12/12 18:25:40;;;;;;;119.23;54.33;;;;;;;-0.15;100.00;101525.80;5260219;55;1141015;-79
2021/12/12 18:30:49;;;;;;;120.23;54.10;;;;;;;-0.16;100.00;101531.91;5252778;55;1143150;-79
2021/12/12 18:36:00;;;;;;;117.83;50.97;;;;;;;-0.20;100.00;101532.84;5255194;55;1143122;-78
2021/12/12 18:41:24;;;;;;;114.63;54.10;;;;;;;-0.22;100.00;101526.80;5243161;55;1143294;-78
2021/12/12 18:46:37;;;;;;;156.13;75.63;;;;;;;-0.24;100.00;101518.16;5240170;55;1143056;-78
2021/12/12 18:51:50;;;;;;;116.50;51.53;;;;;;;-0.24;100.00;101516.87;5253603;55;1143253;-81
2021/12/12 18:57:03;;;;;;;117.47;51.02;;;;;;;-0.21;100.00;101510.77;5263761;55;1145061;-79
2021/12/12 19:02:10;;;;;;;123.75;55.40;;;;;;;-0.21;100.00;101517.27;5163045;55;1145245;-76
2021/12/12 19:07:17;;;;;;;128.63;58.10;;;;;;;-0.25;100.00;101519.05;5299211;55;1145159;-79
2021/12/12 19:12:51;;;;;;;347.00;136.57;;;;;;;-0.22;100.00;101541.09;5288478;55;1145277;-80
2021/12/12 19:18:04;;;;;;;151.37;69.77;;;;;;;-0.24;100.00;101546.76;5270965;55;1147275;-78
2021/12/12 19:23:12;;;;;;;155.70;67.65;;;;;;;-0.26;100.00;101540.72;5309115;55;1145673;-78
2021/12/12 19:28:33;;;;;;;125.23;57.00;;;;;;;-0.28;100.00;101540.33;5271027;55;1145266;-77
2021/12/12 19:33:41;;;;;;;127.97;57.17;;;;;;;-0.34;100.00;101541.75;5279159;55;1145176;-79
2021/12/12 19:38:49;;;;;;;127.77;58.37;;;;;;;-0.39;100.00;101545.27;5264197;55;1145172;-82
2021/12/12 19:44:02;;;;;;;145.40;61.93;;;;;;;-0.40;100.00;101546.59;5310455;55;1145248;-81
2021/12/12 19:49:12;;;;;;;256.33;96.93;;;;;;;-0.39;100.00;101536.17;5293518;55;1145481;-80
2021/12/12 19:54:28;;;;;;;147.50;60.03;;;;;;;-0.35;100.00;101531.80;5242637;55;1145180;-83
2021/12/12 19:59:48;;;;;;;141.77;60.93;;;;;;;-0.34;100.00;101537.41;5202832;55;1145260;-79
2021/12/12 20:04:58;;;;;;;130.80;59.33;;;;;;;-0.35;100.00;101533.09;5204028;55;1145672;-79
2021/12/12 20:10:14;;;;;;;130.22;59.25;;;;;;;-0.38;100.00;101527.50;5188236;55;1145302;-81
2021/12/12 20:15:24;;;;;;;143.97;65.13;;;;;;;-0.36;100.00;101546.53;5172060;56;1145315;-79
2021/12/12 20:20:34;;;;;;;147.53;64.50;;;;;;;-0.35;100.00;101547.39;5208433;55;1145194;-78
2021/12/12 20:25:44;;;;;;;139.90;70.07;;;;;;;-0.38;100.00;101525.34;5160258;56;1143221;-82
2021/12/12 20:30:57;;;;;;;125.20;62.13;;;;;;;-0.40;100.00;101525.36;5161851;56;1143277;-81
2021/12/12 20:36:13;;;;;;;128.57;54.80;;;;;;;-0.38;100.00;101524.04;5184637;56;1143206;-79
2021/12/12 20:41:26;;;;;;;113.33;54.10;;;;;;;-0.38;100.00;101519.70;5212066;56;1143088;-78
2021/12/12 20:46:39;;;;;;;132.27;58.53;;;;;;;-0.37;100.00;101522.72;5205706;55;1143138;-82
2021/12/12 20:51:58;;;;;;;;;;;;;;;-0.39;100.00;101519.28;5159480;56;1143060;-81
2021/12/12 20:57:20;;;;;;;133.57;54.83;;;;;;;-0.41;100.00;101514.55;5158966;56;974436;-80
2021/12/12 21:02:33;;;;;;;108.40;49.53;;;;;;;-0.43;100.00;101506.36;5191675;56;1143045;-81
2021/12/12 21:07:42;;;;;;;109.15;52.35;;;;;;;-0.46;100.00;101512.92;5204294;55;1145116;-82
2021/12/12 21:12:55;;;;;;;113.80;52.77;;;;;;;-0.47;100.00;101504.72;5197767;55;1145404;-81
2021/12/12 21:18:03;;;;;;;108.15;50.70;;;;;;;-0.49;100.00;101496.94;5216836;55;1145137;-81
2021/12/12 21:23:29;;;;;;;116.97;52.17;;;;;;;-0.49;100.00;101481.35;5201599;55;1145237;-78
2021/12/12 21:28:37;;;;;;;99.47;44.93;;;;;;;-0.53;100.00;101488.77;5191096;56;1145235;-79
2021/12/12 21:34:08;;;;;;;125.87;54.00;;;;;;;-0.51;100.00;101484.85;5195095;56;1143160;-79
2021/12/12 21:39:33;;;;;;;118.90;57.80;;;;;;;-0.47;100.00;101487.38;5188755;56;1145316;-78
2021/12/12 21:44:58;;;;;;;159.37;65.77;;;;;;;-0.45;100.00;101486.03;5178422;56;1145449;-79
2021/12/12 21:50:18;;;;;;;113.27;52.57;;;;;;;-0.42;100.00;101486.84;5171674;56;1145380;-79
2021/12/12 21:55:28;;;;;;;117.57;53.17;;;;;;;-0.37;100.00;101495.43;5173868;56;1145199;-78
2021/12/12 22:00:35;;;;;;;415.33;106.80;;;;;;;-0.35;100.00;101487.61;5220191;56;1145241;-78
2021/12/12 22:05:45;;;;;;;140.73;63.98;;;;;;;-0.32;100.00;101490.16;5225928;56;1147392;-80
2021/12/12 22:10:57;;;;;;;106.33;49.20;;;;;;;-0.32;100.00;101490.61;5212167;56;1145301;-79
2021/12/12 22:16:13;;;;;;;125.97;56.07;;;;;;;-0.31;100.00;101500.12;5225768;56;1143241;-80
2021/12/12 22:21:22;;;;;;;608.03;270.07;;;;;;;-0.32;100.00;101498.41;5219677;56;1143167;-78
2021/12/12 22:26:34;;;;;;;378.63;104.40;;;;;;;-0.30;100.00;101495.30;5214988;56;1145160;-78
2021/12/12 22:31:43;;;;;;;255.87;75.37;;;;;;;-0.30;100.00;101496.16;5215960;56;1145279;-80
2021/12/12 22:36:55;;;;;;;219.73;67.20;;;;;;;-0.26;100.00;101491.34;5216318;56;1143150;-78
2021/12/12 22:42:06;;;;;;;209.63;66.27;;;;;;;-0.21;100.00;101493.42;5213932;56;1143322;-78
2021/12/12 22:47:12;;;;;;;158.20;59.27;;;;;;;-0.19;100.00;101490.36;5179801;56;1143193;-80
2021/12/12 22:52:26;;;;;;;109.57;47.17;;;;;;;-0.17;100.00;101490.34;5206135;56;1143142;-80
2021/12/12 22:57:54;;;;;;;195.62;89.03;;;;;;;-0.17;100.00;101487.29;5206208;56;1143207;-79
2021/12/12 23:03:05;;;;;;;129.17;51.87;;;;;;;-0.20;100.00;101491.23;5211819;56;1145218;-79
2021/12/12 23:08:21;;;;;;;180.00;67.60;;;;;;;-0.18;100.00;101491.22;5211572;56;1144926;-78
2021/12/12 23:13:35;;;;;;;124.87;51.10;;;;;;;-0.15;100.00;101483.34;5216286;56;1145308;-78